M I D A S
Marine Information and Data Acquisition System
Tripno 1733 of the Zeeleeuw from 2009-07-09 06:46:27 to 2009-07-09 17:26:28
Back to CruiseResearch ActivitiesStationsMapUnderway DataData graphs

EquipmentUnitsComment
TimeDGPSUTC
LatitudeDGPSDM.mWGS84
LongitudeDGPSDM.mWGS84
TemperatureSBE03/SBE38deg celciusITS90
ConductivitySBE21S/mITS90
SalinitySBE21 Practical Salinity Units
ChlorophylAChelsea fluorimeterg/lCalibrated in Aceton
Missing or incorrect values are displayed as -999
Sea surface data collected by the RV Zeeleeuw from 2009-07-09 06:41:00 to 2009-07-09 17:34:14
Time Latitude Longitude Temperature Conductivity Salinity ChlorophylA
2009-07-09 06:42:09 51°13.679 2°55.898 19.8779 4.074379 29.187498 11.501267
2009-07-09 06:43:08 51°13.694 2°55.812 19.8789 4.075001 29.188176 12.476341
2009-07-09 06:44:09 51°13.7 2°55.751 19.8657 4.080603 29.238755 13.277294
2009-07-09 06:45:08 51°13.702 2°55.743 19.8667 4.085893 29.283118 13.730007
2009-07-09 06:46:06 51°13.706 2°55.734 19.8593 4.088279 29.311847 13.904127
2009-07-09 06:47:05 51°13.772 2°55.684 19.8457 4.092221 29.337932 13.904127
2009-07-09 06:48:05 51°13.899 2°55.585 19.8333 4.072927 29.197356 14.322015
2009-07-09 06:49:05 51°14.044 2°55.474 19.8062 4.067534 29.165026 15.540857
2009-07-09 06:50:05 51°14.185 2°55.352 19.7774 4.098031 29.431347 15.99357
2009-07-09 06:51:05 51°14.304 2°55.175 19.7447 4.11245 29.563578 16.237338
2009-07-09 06:52:05 51°14.405 2°54.951 19.7207 4.138073 29.783128 16.690051
2009-07-09 06:53:05 51°14.503 2°54.688 19.6723 4.150834 29.894851 16.933819
2009-07-09 06:54:04 51°14.589 2°54.403 19.6367 4.218585 30.494445 18.883966
2009-07-09 06:55:04 51°14.682 2°54.119 19.5628 4.246186 30.737528 19.406327
2009-07-09 06:56:05 51°14.844 2°53.999 19.4793 4.338444 31.553388 20.834113
2009-07-09 06:57:04 51°14.987 2°54.105 19.4379 4.359929 31.772197 20.938586
2009-07-09 06:58:05 51°15.093 2°54.309 19.3882 4.375498 31.940554 20.938586
2009-07-09 06:59:04 51°15.211 2°54.494 19.3322 4.381727 32.024162 21.043058
2009-07-09 07:00:04 51°15.346 2°54.649 19.3287 4.38235 32.066328 21.217178
2009-07-09 07:01:04 51°15.486 2°54.796 19.3446 4.398438 32.191301 20.799289
2009-07-09 07:02:04 51°15.625 2°54.944 19.3665 4.412659 32.29921 20.729641
2009-07-09 07:03:04 51°15.759 2°55.101 19.3794 4.417122 32.321856 20.903762
2009-07-09 07:04:05 51°15.837 2°55.331 19.3892 4.418887 32.323024 20.903762
2009-07-09 07:05:05 51°15.894 2°55.574 19.3951 4.418575 32.315054 21.252002
2009-07-09 07:06:04 51°15.958 2°55.809 19.4082 4.415669 32.28708 21.217178
2009-07-09 07:07:05 51°16.032 2°56.044 19.4075 4.410167 32.238513 21.286826
2009-07-09 07:08:04 51°16.105 2°56.269 19.4051 4.403316 32.181344 21.495771
2009-07-09 07:09:05 51°16.18 2°56.503 19.4071 4.398022 32.137509 21.774363
2009-07-09 07:10:04 51°16.255 2°56.728 19.4128 4.395324 32.11188 21.948483
2009-07-09 07:11:04 51°16.332 2°56.957 19.4128 4.393455 32.096626 21.948483
2009-07-09 07:12:05 51°16.42 2°57.183 19.4209 4.391691 32.079829 22.296724
2009-07-09 07:13:04 51°16.509 2°57.396 19.4187 4.388161 32.046247 22.401196
2009-07-09 07:14:04 51°16.602 2°57.61 19.4222 4.381934 31.996026 22.714612
2009-07-09 07:15:04 51°16.693 2°57.823 19.418 4.368544 31.887406 22.958381
2009-07-09 07:16:05 51°16.776 2°58.048 19.4148 4.35474 31.776047 22.923557
2009-07-09 07:17:04 51°16.849 2°58.271 19.4236 4.347163 31.7143 22.714612
2009-07-09 07:18:04 51°16.923 2°58.501 19.4219 4.343012 31.675754 22.157428
2009-07-09 07:19:04 51°16.999 2°58.73 19.4137 4.338653 31.641427 21.913659
2009-07-09 07:20:05 51°17.077 2°58.961 19.409 4.329001 31.566352 21.460946
2009-07-09 07:21:05 51°17.156 2°59.186 19.4172 4.318623 31.485377 20.834113
2009-07-09 07:22:04 51°17.231 2°59.41 19.425 4.309801 31.411237 20.659993
2009-07-09 07:23:05 51°17.307 2°59.644 19.4255 4.305858 31.373307 20.520697
2009-07-09 07:24:05 51°17.382 2°59.873 19.4457 4.305235 31.362987 20.625169
2009-07-09 07:25:04 51°17.455 3°0.099 19.4708 4.306584 31.355284 21.008234
2009-07-09 07:26:04 51°17.53 3°0.328 19.4845 4.305027 31.328647 21.14753
2009-07-09 07:27:04 51°17.605 3°0.555 19.4966 4.302743 31.297881 21.565419
2009-07-09 07:28:04 51°17.682 3°0.781 19.4959 4.297969 31.255055 21.252002
2009-07-09 07:29:05 51°17.757 3°1.017 19.4969 4.293507 31.218253 20.764465
2009-07-09 07:30:05 51°17.827 3°1.248 19.4979 4.29029 31.190406 20.694817
2009-07-09 07:31:04 51°17.896 3°1.471 19.495 4.288007 31.171301 20.834113
2009-07-09 07:32:04 51°17.967 3°1.695 19.4838 4.284271 31.146776 19.754568
2009-07-09 07:33:04 51°18.04 3°1.918 19.4725 4.280847 31.127086 18.779494
2009-07-09 07:34:04 51°18.11 3°2.145 19.4581 4.27763 31.109653 18.257134
2009-07-09 07:35:04 51°18.178 3°2.374 19.4447 4.274309 31.090794 17.908893
2009-07-09 07:36:05 51°18.25 3°2.604 19.432 4.270366 31.069185 17.525828
2009-07-09 07:37:05 51°18.323 3°2.832 19.4275 4.267046 31.050889 17.177588
2009-07-09 07:38:05 51°18.382 3°2.959 19.4159 4.264763 31.036972 16.968644
2009-07-09 07:39:05 51°18.418 3°2.972 19.4172 4.262791 31.027313 16.620403
2009-07-09 07:40:04 51°18.428 3°3 19.4069 4.261961 31.02057 16.376635
2009-07-09 07:41:05 51°18.413 3°3.02 19.411 4.25916 31.001855 16.063218
2009-07-09 07:42:04 51°18.397 3°3.021 19.4051 4.25833 30.996267 15.923922
2009-07-09 07:43:05 51°18.385 3°3.013 19.4082 4.258122 30.993427 15.784626
2009-07-09 07:44:05 51°18.374 3°3 19.4115 4.257292 30.986108 15.575681
2009-07-09 07:45:05 51°18.363 3°2.984 19.4162 4.256358 30.9791 15.297089
2009-07-09 07:46:05 51°18.354 3°2.964 19.4038 4.255839 30.975463 15.122969
2009-07-09 07:47:04 51°18.344 3°2.943 19.4023 4.255009 30.970451 15.088145
2009-07-09 07:48:04 51°18.335 3°2.92 19.4012 4.253971 30.963754 14.983672
2009-07-09 07:49:04 51°18.324 3°2.895 19.4046 4.253556 30.961536 14.914024
2009-07-09 07:50:05 51°18.314 3°2.87 19.4017 4.253556 30.960383 14.844376
2009-07-09 07:51:05 51°18.304 3°2.844 19.3977 4.253349 30.958121 14.809552
2009-07-09 07:52:05 51°18.294 3°2.819 19.3966 4.252311 30.954305 14.70508
2009-07-09 07:53:05 51°18.285 3°2.795 19.4006 4.252 30.952353 14.635432
2009-07-09 07:54:04 51°18.274 3°2.771 19.397 4.252104 30.952619 14.565784
2009-07-09 07:55:04 51°18.265 3°2.748 19.3958 4.251896 30.950933 14.461312
2009-07-09 07:56:05 51°18.256 3°2.724 19.3993 4.251792 30.950091 14.53096
2009-07-09 07:57:05 51°18.246 3°2.7 19.3994 4.251689 30.948671 14.391664
2009-07-09 07:58:04 51°18.237 3°2.676 19.3982 4.251896 30.948628 14.356839
2009-07-09 07:59:05 51°18.228 3°2.651 19.4015 4.252104 30.949161 14.356839
2009-07-09 08:00:05 51°18.219 3°2.627 19.4051 4.252311 30.949693 14.252367
2009-07-09 08:01:05 51°18.21 3°2.602 19.404 4.252207 30.948851 14.147895
2009-07-09 08:02:05 51°18.2 3°2.577 19.4068 4.252415 30.948807 14.113071
2009-07-09 08:03:05 51°18.189 3°2.553 19.4023 4.252207 30.948274 14.113071
2009-07-09 08:04:05 51°18.178 3°2.529 19.4077 4.252311 30.947965 14.078247
2009-07-09 08:05:04 51°18.168 3°2.505 19.4076 4.252311 30.947965 14.043423
2009-07-09 08:06:05 51°18.156 3°2.481 19.4073 4.249198 30.921535 14.113071
2009-07-09 08:07:05 51°18.145 3°2.458 19.4074 4.252519 30.948497 14.182719
2009-07-09 08:08:05 51°18.134 3°2.433 19.4078 4.248575 30.915329 14.147895
2009-07-09 08:09:05 51°18.123 3°2.409 19.4113 4.252726 30.948454 14.147895
2009-07-09 08:10:04 51°18.113 3°2.385 19.4048 4.25283 30.949873 14.182719
2009-07-09 08:11:05 51°18.102 3°2.361 19.4073 4.252622 30.94934 14.182719
2009-07-09 08:12:05 51°18.092 3°2.337 19.405 4.252415 30.948231 14.113071
2009-07-09 08:13:05 51°18.081 3°2.312 19.4102 4.252519 30.947921 14.078247
2009-07-09 08:14:05 51°18.069 3°2.289 19.4056 4.252519 30.947921 14.043423
2009-07-09 08:15:04 51°18.058 3°2.266 19.4043 4.252103 30.946279 14.078247
2009-07-09 08:16:05 51°18.047 3°2.242 19.4028 4.252103 30.946856 14.043423
2009-07-09 08:17:05 51°18.036 3°2.219 19.4029 4.251896 30.946899 14.008599
2009-07-09 08:18:05 51°18.025 3°2.196 19.4005 4.251792 30.946056 14.008599
2009-07-09 08:19:05 51°18.014 3°2.173 19.3963 4.251688 30.946366 14.008599
2009-07-09 08:20:04 51°18.001 3°2.16 19.396 4.251481 30.94641 14.043423
2009-07-09 08:21:05 51°17.996 3°2.203 19.3958 4.251066 30.945344 14.113071
2009-07-09 08:22:05 51°18.03 3°2.322 19.3913 4.251273 30.9453 14.252367
2009-07-09 08:23:05 51°18.086 3°2.509 19.3985 4.250651 30.942549 14.914024
2009-07-09 08:24:05 51°18.159 3°2.724 19.3847 4.249821 30.938111 15.506033
2009-07-09 08:25:05 51°18.245 3°2.944 19.3853 4.249198 30.934207 15.854274
2009-07-09 08:26:05 51°18.331 3°3.163 19.3769 4.248264 30.929502 15.854274
2009-07-09 08:27:05 51°18.416 3°3.385 19.3683 4.246293 30.9204 15.81945
2009-07-09 08:28:04 51°18.498 3°3.6 19.3635 4.244425 30.912139 15.784626
2009-07-09 08:29:05 51°18.583 3°3.825 19.3515 4.242661 30.902413 15.854274
2009-07-09 08:30:04 51°18.663 3°4.046 19.3456 4.239964 30.887977 15.81945
2009-07-09 08:31:05 51°18.747 3°4.273 19.3405 4.238407 30.879358 15.784626
2009-07-09 08:32:04 51°18.836 3°4.483 19.3358 4.237162 30.870965 15.784626
2009-07-09 08:33:05 51°18.982 3°4.604 19.3409 4.235917 30.860844 15.81945
2009-07-09 08:34:05 51°19.15 3°4.63 19.3439 4.233842 30.843402 15.784626
2009-07-09 08:35:05 51°19.321 3°4.614 19.3479 4.23104 30.816036 15.889098
2009-07-09 08:36:05 51°19.438 3°4.455 19.3492 4.225852 30.773888 16.306987
2009-07-09 08:37:05 51°19.437 3°4.214 19.354 4.222739 30.746309 16.272162
2009-07-09 08:38:05 51°19.462 3°3.964 19.3499 4.220353 30.726355 15.889098
2009-07-09 08:39:04 51°19.472 3°3.691 19.3541 4.219108 30.716817 15.714978
2009-07-09 08:40:05 51°19.412 3°3.41 19.3534 4.218277 30.708358 15.471209
2009-07-09 08:41:04 51°19.313 3°3.141 19.3599 4.21807 30.704956 15.366737
2009-07-09 08:42:05 51°19.214 3°2.854 19.3625 4.219315 30.710486 15.471209
2009-07-09 08:43:05 51°19.137 3°2.585 19.3597 4.221598 30.730164 15.540857
2009-07-09 08:44:05 51°19.076 3°2.313 19.3565 4.225644 30.763024 15.471209
2009-07-09 08:45:05 51°19.011 3°2.043 19.3533 4.229484 30.795925 15.227441
2009-07-09 08:46:05 51°18.936 3°1.776 19.3547 4.232596 30.824084 14.948848
2009-07-09 08:47:05 51°18.848 3°1.498 19.3625 4.235294 30.844278 14.8792
2009-07-09 08:48:05 51°18.777 3°1.192 19.3708 4.238615 30.86953 14.844376
2009-07-09 08:49:05 51°18.721 3°0.875 19.3703 4.242143 30.897045 14.948848
2009-07-09 08:50:05 51°18.676 3°0.556 19.3675 4.245671 30.922257 15.227441
2009-07-09 08:51:05 51°18.628 3°0.239 19.3709 4.249821 30.952526 15.714978
2009-07-09 08:52:05 51°18.582 2°59.919 19.3848 4.254387 30.986168 16.202514
2009-07-09 08:53:05 51°18.523 2°59.6 19.3932 4.258122 31.01075 16.655227
2009-07-09 08:54:05 51°18.437 2°59.297 19.4015 4.261131 31.028847 17.10794
2009-07-09 08:55:05 51°18.336 2°59.004 19.4014 4.263518 31.047663 17.630301
2009-07-09 08:56:05 51°18.232 2°58.713 19.4112 4.267565 31.075344 18.117837
2009-07-09 08:57:05 51°18.128 2°58.424 19.4319 4.273065 31.110192 19.058087
2009-07-09 08:58:05 51°18.024 2°58.134 19.4424 4.279498 31.149718 19.893864
2009-07-09 08:59:05 51°17.924 2°57.842 19.4549 4.286243 31.193495 20.102808
2009-07-09 09:00:05 51°17.823 2°57.548 19.4559 4.295272 31.263357 20.625169
2009-07-09 09:01:05 51°17.722 2°57.251 19.4531 4.29797 31.283535 20.03316
2009-07-09 09:02:04 51°17.621 2°56.959 19.46 4.29797 31.282953 19.232207
2009-07-09 09:03:05 51°17.517 2°56.661 19.4605 4.2988 31.284463 19.127735
2009-07-09 09:04:05 51°17.417 2°56.363 19.4584 4.306376 31.347766 20.520697
2009-07-09 09:05:05 51°17.315 2°56.065 19.456 4.314574 31.413237 22.331548
2009-07-09 09:06:05 51°17.211 2°55.77 19.4526 4.32049 31.464256 23.271797
2009-07-09 09:07:05 51°17.123 2°55.465 19.4538 4.325991 31.511333 23.759334
2009-07-09 09:08:05 51°17.067 2°55.144 19.4524 4.33201 31.563237 23.376269
2009-07-09 09:09:05 51°17.015 2°54.817 19.4336 4.337718 31.615569 23.097677
2009-07-09 09:10:05 51°16.964 2°54.489 19.4211 4.344361 31.680846 22.505668
2009-07-09 09:11:05 51°16.901 2°54.172 19.4129 4.350277 31.735536 21.948483
2009-07-09 09:12:05 51°16.829 2°53.866 19.3827 4.365119 31.866005 21.704715
2009-07-09 09:13:05 51°16.834 2°53.563 19.3551 4.402175 32.187015 21.635067
2009-07-09 09:14:05 51°16.929 2°53.319 19.3403 4.433731 32.464417 20.97341
2009-07-09 09:15:05 51°17.051 2°53.114 19.3201 4.455947 32.662212 20.485873
2009-07-09 09:16:04 51°17.184 2°52.93 19.3018 4.47318 32.817012 19.650096
2009-07-09 09:17:05 51°17.348 2°52.896 19.2938 4.484289 32.91988 19.197383
2009-07-09 09:18:05 51°17.498 2°52.995 19.2798 4.488753 32.966409 18.988439
2009-07-09 09:19:05 51°17.611 2°53.184 19.2799 4.490311 32.984758 18.988439
2009-07-09 09:20:05 51°17.693 2°53.413 19.2813 4.490934 32.991112 19.162559
2009-07-09 09:21:05 51°17.785 2°53.634 19.2845 4.484082 32.93357 18.918791
2009-07-09 09:22:05 51°17.879 2°53.854 19.2893 4.474011 32.847157 18.675022
2009-07-09 09:23:05 51°17.972 2°54.072 19.3123 4.460619 32.728633 18.57055
2009-07-09 09:24:05 51°18.065 2°54.291 19.3351 4.440998 32.551864 18.431254
2009-07-09 09:25:04 51°18.157 2°54.504 19.3519 4.419718 32.361199 18.361606
2009-07-09 09:26:05 51°18.248 2°54.724 19.375 4.400826 32.193399 18.431254
2009-07-09 09:27:05 51°18.34 2°54.94 19.3972 4.379651 32.002435 18.222309
2009-07-09 09:28:05 51°18.429 2°55.159 19.4116 4.36294 31.852384 18.257134
2009-07-09 09:29:05 51°18.517 2°55.377 19.4275 4.350381 31.737563 18.675022
2009-07-09 09:30:05 51°18.608 2°55.594 19.4379 4.342596 31.664118 19.232207
2009-07-09 09:31:05 51°18.7 2°55.808 19.4497 4.33284 31.575867 19.441151
2009-07-09 09:32:05 51°18.789 2°56.024 19.4613 4.319141 31.454455 19.162559
2009-07-09 09:33:05 51°18.879 2°56.239 19.4761 4.308659 31.359907 19.197383
2009-07-09 09:34:05 51°18.969 2°56.456 19.4831 4.30129 31.291316 19.023263
2009-07-09 09:35:05 51°19.06 2°56.675 19.4899 4.295375 31.236896 18.709846
2009-07-09 09:36:05 51°19.145 2°56.9 19.4951 4.291224 31.199724 18.222309
2009-07-09 09:37:05 51°19.212 2°57.14 19.495 4.287799 31.169038 17.560652
2009-07-09 09:38:05 51°19.271 2°57.384 19.4919 4.284894 31.146042 17.247236
2009-07-09 09:39:05 51°19.328 2°57.63 19.4843 4.280743 31.114102 16.655227
2009-07-09 09:40:05 51°19.392 2°57.87 19.4843 4.275866 31.078581 16.132866
2009-07-09 09:41:05 51°19.452 2°58.11 19.4987 4.272337 31.049386 15.680154
2009-07-09 09:42:05 51°19.515 2°58.35 19.4939 4.269639 31.021742 15.297089
2009-07-09 09:43:05 51°19.578 2°58.59 19.4992 4.2658 30.988887 14.948848
2009-07-09 09:44:05 51°19.642 2°58.831 19.503 4.26362 30.967197 14.774728
2009-07-09 09:45:04 51°19.704 2°59.068 19.488 4.260404 30.945149 14.739904
2009-07-09 09:46:05 51°19.771 2°59.311 19.4807 4.257083 30.924555 14.809552
2009-07-09 09:47:05 51°19.836 2°59.549 19.4823 4.252933 30.893783 14.600608
2009-07-09 09:48:05 51°19.899 2°59.787 19.4862 4.250442 30.872453 14.461312
2009-07-09 09:49:05 51°19.962 3°0.025 19.4893 4.249819 30.863394 14.287191
2009-07-09 09:50:05 51°20.025 3°0.264 19.4974 4.249301 30.859191 14.322015
2009-07-09 09:51:05 51°20.088 3°0.505 19.4969 4.250753 30.864656 14.287191
2009-07-09 09:52:05 51°20.152 3°0.746 19.5085 4.251998 30.873597 14.252367
2009-07-09 09:53:05 51°20.22 3°0.984 19.5184 4.254281 30.884638 14.217543
2009-07-09 09:54:05 51°20.282 3°1.225 19.5363 4.256771 30.897356 14.113071
2009-07-09 09:55:05 51°20.347 3°1.465 19.538 4.259469 30.908883 14.043423
2009-07-09 09:56:05 51°20.411 3°1.706 19.5414 4.260714 30.916672 13.938951
2009-07-09 09:57:05 51°20.474 3°1.949 19.5449 4.261233 30.918579 13.904127
2009-07-09 09:58:05 51°20.536 3°2.195 19.55 4.261337 30.913686 13.834479
2009-07-09 09:59:05 51°20.575 3°2.455 19.5542 4.261544 30.910208 13.764831
2009-07-09 10:00:05 51°20.613 3°2.717 19.5614 4.260818 30.903756 13.764831
2009-07-09 10:01:05 51°20.646 3°2.982 19.5632 4.261544 30.906197 13.799655
2009-07-09 10:02:05 51°20.681 3°3.246 19.5564 4.262686 30.915435 13.904127
2009-07-09 10:03:05 51°20.716 3°3.513 19.5576 4.262997 30.922539 13.938951
2009-07-09 10:04:05 51°20.732 3°3.784 19.5571 4.264969 30.936777 14.043423
2009-07-09 10:05:05 51°20.714 3°4.059 19.5665 4.269431 30.975769 14.043423
2009-07-09 10:06:05 51°20.647 3°4.32 19.5539 4.27244 30.99841 14.043423
2009-07-09 10:07:05 51°20.543 3°4.532 19.5398 4.270053 30.983107 14.147895
2009-07-09 10:08:05 51°20.441 3°4.718 19.5332 4.270157 30.991418 14.147895
2009-07-09 10:09:05 51°20.343 3°4.907 19.5389 4.271714 31.007476 14.043423
2009-07-09 10:10:05 51°20.227 3°5.057 19.5356 4.272129 31.008537 14.008599
2009-07-09 10:11:05 51°20.07 3°5.064 19.5332 4.271299 31.001238 14.008599
2009-07-09 10:12:05 51°19.906 3°4.974 19.527 4.269223 30.986153 13.973775
2009-07-09 10:13:05 51°19.749 3°4.831 19.525 4.265073 30.958853 14.078247
2009-07-09 10:14:05 51°19.604 3°4.633 19.5184 4.261545 30.928557 14.322015
2009-07-09 10:15:05 51°19.497 3°4.384 19.5198 4.256045 30.888034 14.53096
2009-07-09 10:16:05 51°19.44 3°4.089 19.5153 4.249612 30.842239 14.670256
2009-07-09 10:17:05 51°19.388 3°3.789 19.518 4.245253 30.808096 14.844376
2009-07-09 10:18:05 51°19.337 3°3.487 19.5066 4.241518 30.779567 14.8792
2009-07-09 10:19:05 51°19.307 3°3.18 19.5173 4.239028 30.759978 14.983672
2009-07-09 10:20:05 51°19.282 3°2.874 19.5134 4.23799 30.75215 15.053321
2009-07-09 10:21:05 51°19.238 3°2.567 19.5082 4.237575 30.748219 15.053321
2009-07-09 10:22:05 51°19.177 3°2.269 19.519 4.237886 30.749027 15.122969
2009-07-09 10:23:05 51°19.105 3°1.977 19.5197 4.239131 30.75454 15.122969
2009-07-09 10:24:05 51°19.031 3°1.688 19.5229 4.23965 30.758168 15.192617
2009-07-09 10:25:05 51°18.963 3°1.396 19.5208 4.239961 30.759546 15.192617
2009-07-09 10:26:05 51°18.913 3°1.098 19.5178 4.240376 30.764618 15.122969
2009-07-09 10:27:05 51°18.871 3°0.796 19.5163 4.241206 30.770766 15.088145
2009-07-09 10:28:05 51°18.829 3°0.492 19.5224 4.241829 30.779231 15.157793
2009-07-09 10:29:05 51°18.789 3°0.192 19.5075 4.243074 30.78874 15.227441
2009-07-09 10:30:05 51°18.745 2°59.895 19.5005 4.242763 30.79422 15.297089
2009-07-09 10:31:05 51°18.704 2°59.598 19.4965 4.242037 30.794055 15.366737
2009-07-09 10:32:05 51°18.655 2°59.3 19.5014 4.242141 30.800043 15.575681
2009-07-09 10:33:05 51°18.599 2°59.007 19.4981 4.243178 30.807303 15.749802
2009-07-09 10:34:05 51°18.512 2°58.736 19.4942 4.243075 30.809896 15.889098
2009-07-09 10:35:05 51°18.408 2°58.479 19.4817 4.243801 30.813491 15.889098
2009-07-09 10:36:05 51°18.306 2°58.218 19.4834 4.244009 30.819178 15.889098
2009-07-09 10:37:05 51°18.198 2°57.962 19.485 4.245046 30.828158 15.784626
2009-07-09 10:38:05 51°18.104 2°57.695 19.4883 4.24764 30.846885 15.749802
2009-07-09 10:39:05 51°18.016 2°57.447 19.4915 4.250234 30.866184 15.749802
2009-07-09 10:40:05 51°17.966 2°57.311 19.4929 4.252102 30.880745 15.749802
2009-07-09 10:41:05 51°17.93 2°57.236 19.4965 4.253555 30.889075 15.854274
2009-07-09 10:42:05 51°17.899 2°57.19 19.5057 4.255008 30.89683 15.784626
2009-07-09 10:43:05 51°17.865 2°57.124 19.5081 4.25646 30.905158 15.784626
2009-07-09 10:44:05 51°17.831 2°57.017 19.5102 4.257809 30.915513 15.784626
2009-07-09 10:45:05 51°17.798 2°56.919 19.5143 4.258639 30.918795 15.749802
2009-07-09 10:46:05 51°17.771 2°56.846 19.5125 4.259677 30.926053 15.714978
2009-07-09 10:47:05 51°17.743 2°56.785 19.5102 4.260092 30.931138 15.714978
2009-07-09 10:48:05 51°17.715 2°56.719 19.5124 4.260818 30.934726 15.540857
2009-07-09 10:49:05 51°17.687 2°56.65 19.5109 4.261233 30.937515 15.471209
2009-07-09 10:50:05 51°17.66 2°56.58 19.5152 4.261441 30.940345 15.366737
2009-07-09 10:51:05 51°17.635 2°56.51 19.5133 4.262064 30.943666 15.366737
2009-07-09 10:52:05 51°17.607 2°56.44 19.5134 4.262582 30.94672 15.331913
2009-07-09 10:53:05 51°17.576 2°56.37 19.5205 4.262998 30.950083 15.297089
2009-07-09 10:54:05 51°17.547 2°56.302 19.523 4.263413 30.952297 15.262265
2009-07-09 10:55:05 51°17.518 2°56.235 19.519 4.264035 30.956192 15.297089
2009-07-09 10:56:05 51°17.492 2°56.167 19.5222 4.264554 30.960395 15.227441
2009-07-09 10:57:05 51°17.464 2°56.099 19.5259 4.26528 30.964556 15.262265
2009-07-09 10:58:05 51°17.438 2°56.03 19.5261 4.265903 30.967876 15.227441
2009-07-09 10:59:05 51°17.412 2°55.96 19.5269 4.266629 30.972036 15.297089
2009-07-09 11:00:05 51°17.386 2°55.889 19.5287 4.267771 30.978409 15.297089
2009-07-09 11:01:05 51°17.359 2°55.818 19.5338 4.268393 30.982877 15.262265
2009-07-09 11:02:05 51°17.334 2°55.747 19.5386 4.269223 30.987877 15.366737
2009-07-09 11:03:05 51°17.308 2°55.678 19.5356 4.270157 30.993143 15.401561
2009-07-09 11:04:05 51°17.279 2°55.615 19.5421 4.270676 30.997345 15.540857
2009-07-09 11:05:05 51°17.25 2°55.556 19.5443 4.271818 31.001991 15.645329
2009-07-09 11:06:05 51°17.217 2°55.498 19.5391 4.272544 31.007874 15.784626
2009-07-09 11:07:05 51°17.189 2°55.466 19.5467 4.272959 31.011236 15.923922
2009-07-09 11:08:05 51°17.165 2°55.454 19.5481 4.273997 31.015039 15.923922
2009-07-09 11:09:05 51°17.145 2°55.455 19.5438 4.274412 31.0184 15.99357
2009-07-09 11:10:05 51°17.127 2°55.462 19.5478 4.274827 31.021762 16.063218
2009-07-09 11:11:05 51°17.109 2°55.468 19.5558 4.275553 31.026494 16.132866
2009-07-09 11:12:05 51°17.085 2°55.473 19.5445 4.27628 31.030076 16.132866
2009-07-09 11:13:05 51°17.036 2°55.473 19.6725 4.287175 31.060754 18.013365
2009-07-09 11:14:05 51°16.919 2°55.549 19.6349 4.299627 31.126354 18.013365
2009-07-09 11:15:05 51°16.803 2°55.75 19.5918 4.296618 31.135402 18.152661
2009-07-09 11:16:05 51°16.707 2°55.992 19.5805 4.292468 31.128895 18.779494
2009-07-09 11:17:05 51°16.614 2°56.235 19.5798 4.282194 31.054952 18.431254
2009-07-09 11:18:05 51°16.521 2°56.479 19.5861 4.292364 31.129208 21.252002
2009-07-09 11:19:05 51°16.429 2°56.713 19.5786 4.295685 31.15263 21.217178
2009-07-09 11:20:05 51°16.36 2°56.819 19.5594 4.289873 31.113082 20.207281
2009-07-09 11:21:05 51°16.313 2°56.892 19.5204 4.283959 31.081899 18.74467
2009-07-09 11:22:05 51°16.269 2°56.962 19.5135 4.275761 31.041989 18.39643
2009-07-09 11:23:05 51°16.235 2°57.03 19.5131 4.271506 31.006945 17.874069
2009-07-09 11:24:05 51°16.241 2°57.095 19.4961 4.267563 30.983626 17.804421
2009-07-09 11:25:05 51°16.275 2°57.14 19.499 4.266007 30.981939 18.013365
2009-07-09 11:26:05 51°16.316 2°57.216 19.5027 4.263309 30.954329 17.630301
2009-07-09 11:27:05 51°16.358 2°57.312 19.507 4.26362 30.952829 17.212412
2009-07-09 11:28:05 51°16.392 2°57.421 19.4939 4.263101 30.949201 17.177588
2009-07-09 11:29:05 51°16.422 2°57.522 19.5045 4.2603 30.932245 17.073116
2009-07-09 11:30:05 51°16.458 2°57.604 19.4986 4.259158 30.918407 17.038292
2009-07-09 11:31:05 51°16.502 2°57.674 19.5026 4.257809 30.913217 16.864171
2009-07-09 11:32:05 51°16.546 2°57.749 19.5038 4.257913 30.908895 16.481107
2009-07-09 11:33:05 51°16.59 2°57.831 19.5123 4.257809 30.907481 16.376635
2009-07-09 11:34:05 51°16.623 2°57.925 19.5062 4.258224 30.906828 16.341811
2009-07-09 11:35:05 51°16.645 2°58.032 19.5062 4.258017 30.90572 16.411459
2009-07-09 11:36:05 51°16.67 2°58.138 19.5068 4.258017 30.907441 16.272162
2009-07-09 11:37:05 51°16.699 2°58.239 19.5012 4.257394 30.903545 16.063218
2009-07-09 11:38:05 51°16.728 2°58.341 19.4933 4.256253 30.896594 16.16769
2009-07-09 11:39:05 51°16.758 2°58.443 19.4939 4.255007 30.892242 16.16769
2009-07-09 11:40:05 51°16.787 2°58.548 19.477 4.253243 30.879672 16.098042
2009-07-09 11:41:05 51°16.816 2°58.65 19.473 4.250857 30.871802 16.376635
2009-07-09 11:42:05 51°16.846 2°58.754 19.4756 4.248055 30.849675 16.16769
2009-07-09 11:43:05 51°16.875 2°58.859 19.4847 4.24681 30.835577 15.958746
2009-07-09 11:44:05 51°16.906 2°58.964 19.5008 4.245461 30.819499 16.098042
2009-07-09 11:45:05 51°16.937 2°59.07 19.5022 4.244008 30.798014 16.028394
2009-07-09 11:46:05 51°16.944 2°59.186 19.4993 4.243074 30.78874 15.923922
2009-07-09 11:47:05 51°16.92 2°59.298 19.5091 4.242244 30.781449 16.132866
2009-07-09 11:48:05 51°16.864 2°59.355 19.5066 4.243593 30.783229 16.063218
2009-07-09 11:49:05 51°16.818 2°59.347 19.487 4.242348 30.781146 16.481107
2009-07-09 11:50:05 51°16.791 2°59.315 19.4908 4.242141 30.788036 16.585579
2009-07-09 11:51:05 51°16.777 2°59.302 19.496 4.243697 30.798924 16.411459
2009-07-09 11:52:05 51°16.768 2°59.3 19.4929 4.244631 30.80477 16.306987
2009-07-09 11:53:05 51°16.76 2°59.307 19.4987 4.24515 30.810114 16.202514
2009-07-09 11:54:05 51°16.751 2°59.321 19.4954 4.24598 30.814548 16.376635
2009-07-09 11:55:05 51°16.742 2°59.343 19.4952 4.245876 30.81428 16.306987
2009-07-09 11:56:05 51°16.73 2°59.364 19.4932 4.246187 30.816229 16.481107
2009-07-09 11:57:05 51°16.709 2°59.359 19.4988 4.247225 30.822914 16.376635
2009-07-09 11:58:05 51°16.693 2°59.295 19.5054 4.248366 30.831012 16.585579
2009-07-09 11:59:05 51°16.665 2°59.119 19.5095 4.249819 30.839341 16.759699
2009-07-09 12:00:05 51°16.627 2°58.868 19.518 4.25096 30.84572 17.003468
2009-07-09 12:01:05 51°16.591 2°58.595 19.5309 4.2548 30.869933 16.898995
2009-07-09 12:02:05 51°16.554 2°58.323 19.5633 4.261648 30.911048 16.968644
2009-07-09 12:03:05 51°16.515 2°58.053 19.5505 4.26777 30.942823 17.003468
2009-07-09 12:04:05 51°16.478 2°57.782 19.5243 4.265902 30.941469 17.45618
2009-07-09 12:05:05 51°16.44 2°57.511 19.5391 4.262063 30.92358 17.525828
2009-07-09 12:06:05 51°16.403 2°57.242 19.5438 4.265487 30.942698 17.734773
2009-07-09 12:07:05 51°16.368 2°56.976 19.5791 4.275034 31.011943 18.535726
2009-07-09 12:08:05 51°16.333 2°56.711 19.5904 4.286864 31.081813 19.301855
2009-07-09 12:09:05 51°16.3 2°56.446 19.6086 4.293609 31.130065 19.963512
2009-07-09 12:10:05 51°16.265 2°56.182 19.6136 4.299939 31.171491 20.764465
2009-07-09 12:11:05 51°16.228 2°55.92 19.615 4.305543 31.211068 20.97341
2009-07-09 12:12:05 51°16.19 2°55.656 19.6283 4.308345 31.233166 21.32165
2009-07-09 12:13:05 51°16.155 2°55.387 19.6206 4.3071 31.215003 20.659993
2009-07-09 12:14:05 51°16.119 2°55.12 19.6234 4.311043 31.250957 21.530595
2009-07-09 12:15:05 51°16.086 2°54.855 19.6064 4.319865 31.322358 22.157428
2009-07-09 12:16:05 51°16.051 2°54.593 19.6098 4.327649 31.395254 22.157428
2009-07-09 12:17:05 51°16.012 2°54.329 19.6364 4.332423 31.425786 21.635067
2009-07-09 12:18:05 51°15.966 2°54.066 19.6414 4.336366 31.444933 21.252002
2009-07-09 12:19:05 51°15.918 2°53.804 19.6425 4.339895 31.468853 21.112706
2009-07-09 12:20:05 51°15.872 2°53.541 19.6567 4.343839 31.496132 21.217178
2009-07-09 12:21:05 51°15.827 2°53.28 19.6465 4.351207 31.549977 21.948483
2009-07-09 12:22:05 51°15.783 2°53.02 19.6492 4.357435 31.607424 22.505668
2009-07-09 12:23:05 51°15.738 2°52.758 19.6461 4.362832 31.648815 22.540492
2009-07-09 12:24:05 51°15.696 2°52.495 19.6582 4.374042 31.74436 21.565419
2009-07-09 12:25:05 51°15.651 2°52.236 19.6534 4.386393 31.836283 20.97341
2009-07-09 12:26:05 51°15.633 2°51.97 19.7041 4.398537 31.926523 20.799289
2009-07-09 12:27:05 51°15.621 2°51.701 19.6827 4.437878 32.219644 20.276929
2009-07-09 12:28:05 51°15.612 2°51.434 19.6594 4.440785 32.261113 20.451049
2009-07-09 12:29:05 51°15.599 2°51.171 19.4168 4.479509 32.63738 19.963512
2009-07-09 12:30:05 51°15.587 2°50.908 19.3448 4.521663 33.128575 19.058087
2009-07-09 12:31:05 51°15.573 2°50.647 19.3305 4.526856 33.223778 18.779494
2009-07-09 12:32:05 51°15.561 2°50.388 19.3285 4.52779 33.233936 18.640198
2009-07-09 12:33:05 51°15.546 2°50.13 19.3276 4.530801 33.261157 18.466078
2009-07-09 12:34:05 51°15.533 2°49.874 19.3201 4.532359 33.275198 18.291958
2009-07-09 12:35:05 51°15.52 2°49.615 19.3049 4.533916 33.296702 18.57055
2009-07-09 12:36:05 51°15.507 2°49.354 19.2921 4.536409 33.329018 18.57055
2009-07-09 12:37:05 51°15.494 2°49.094 19.292 4.540873 33.375095 18.257134
2009-07-09 12:38:05 51°15.478 2°48.833 19.2903 4.546584 33.420836 17.839245
2009-07-09 12:39:05 51°15.466 2°48.572 19.2866 4.552607 33.472277 17.560652
2009-07-09 12:40:05 51°15.458 2°48.309 19.2713 4.558525 33.524135 17.038292
2009-07-09 12:41:05 51°15.441 2°48.049 19.2827 4.562679 33.57969 16.898995
2009-07-09 12:42:05 51°15.427 2°47.791 19.2877 4.562575 33.563759 17.839245
2009-07-09 12:43:05 51°15.417 2°47.533 19.2819 4.568286 33.615206 18.605374
2009-07-09 12:44:05 51°15.408 2°47.276 19.2624 4.574101 33.676988 18.152661
2009-07-09 12:45:05 51°15.397 2°47.02 19.2602 4.579293 33.729902 17.769597
2009-07-09 12:46:05 51°15.387 2°46.765 19.2363 4.583032 33.767698 17.142764
2009-07-09 12:47:05 51°15.375 2°46.511 19.1996 4.588847 33.828998 16.620403
2009-07-09 12:48:05 51°15.361 2°46.255 19.1901 4.593313 33.893824 16.202514
2009-07-09 12:49:05 51°15.346 2°45.998 19.1793 4.594559 33.90476 16.16769
2009-07-09 12:50:05 51°15.33 2°45.74 19.1967 4.594663 33.904982 16.202514
2009-07-09 12:51:05 51°15.313 2°45.481 19.2278 4.59082 33.854807 16.515931
2009-07-09 12:52:05 51°15.295 2°45.22 19.2413 4.584486 33.794255 16.829347
2009-07-09 12:53:05 51°15.277 2°44.958 19.2463 4.576386 33.720444 17.177588
2009-07-09 12:54:05 51°15.26 2°44.697 19.242 4.569117 33.652276 17.316884
2009-07-09 12:55:05 51°15.242 2°44.437 19.2365 4.565171 33.620365 17.491004
2009-07-09 12:56:05 51°15.226 2°44.176 19.2382 4.562056 33.597824 17.665125
2009-07-09 12:57:05 51°15.212 2°43.915 19.2208 4.560395 33.588529 17.839245
2009-07-09 12:58:05 51°15.199 2°43.657 19.1957 4.562161 33.621355 17.630301
2009-07-09 12:59:05 51°15.186 2°43.401 19.1721 4.56403 33.660761 17.560652
2009-07-09 13:00:05 51°15.173 2°43.144 19.1569 4.566938 33.699318 17.386532
2009-07-09 13:01:05 51°15.161 2°42.886 19.1465 4.569326 33.726652 17.247236
2009-07-09 13:02:05 51°15.149 2°42.627 19.1461 4.571715 33.752732 17.177588
2009-07-09 13:03:05 51°15.137 2°42.372 19.1375 4.575972 33.794284 16.933819
2009-07-09 13:04:05 51°15.123 2°42.116 19.1432 4.581164 33.842318 16.585579
2009-07-09 13:05:05 51°15.109 2°41.859 19.1335 4.583552 33.85699 16.446283
2009-07-09 13:06:05 51°15.095 2°41.601 19.1436 4.584072 33.860649 16.446283
2009-07-09 13:07:05 51°15.083 2°41.342 19.1521 4.585006 33.866472 16.411459
2009-07-09 13:08:05 51°15.068 2°41.082 19.1518 4.581164 33.827697 16.481107
2009-07-09 13:09:05 51°15.066 2°40.826 19.1374 4.584798 33.861573 16.376635
2009-07-09 13:10:05 51°15.071 2°40.567 19.1298 4.583656 33.857849 16.376635
2009-07-09 13:11:05 51°15.083 2°40.305 19.1415 4.58023 33.832043 16.341811
2009-07-09 13:12:05 51°15.1 2°40.041 19.1531 4.580022 33.827782 16.306987
2009-07-09 13:13:05 51°15.119 2°39.774 19.1663 4.578153 33.802159 16.272162
2009-07-09 13:14:05 51°15.141 2°39.508 19.1559 4.581268 33.813949 16.272162
2009-07-09 13:15:05 51°15.167 2°39.24 19.0506 4.585629 33.874173 15.923922
2009-07-09 13:16:05 51°15.19 2°38.972 18.9232 4.596015 34.056772 15.401561
2009-07-09 13:17:05 51°15.212 2°38.706 18.8525 4.597782 34.161634 15.018497
2009-07-09 13:18:05 51°15.232 2°38.439 18.7921 4.600587 34.244585 14.670256
2009-07-09 13:19:05 51°15.251 2°38.175 18.7328 4.60038 34.290965 14.426488
2009-07-09 13:20:05 51°15.269 2°37.919 18.6794 4.6036 34.368115 14.078247
2009-07-09 13:21:05 51°15.285 2°37.666 18.6408 4.603186 34.409814 13.834479
2009-07-09 13:22:05 51°15.302 2°37.415 18.662 4.602771 34.42142 13.799655
2009-07-09 13:23:05 51°15.321 2°37.161 18.6501 4.602459 34.413561 13.764831
2009-07-09 13:24:05 51°15.359 2°36.909 18.6516 4.601836 34.402438 13.764831
2009-07-09 13:25:05 51°15.399 2°36.656 18.6248 4.600175 34.394419 13.904127
2009-07-09 13:26:05 51°15.441 2°36.402 18.5895 4.597164 34.396071 14.008599
2009-07-09 13:27:05 51°15.478 2°36.142 18.6377 4.593633 34.383527 14.113071
2009-07-09 13:28:05 51°15.513 2°35.88 18.6853 4.594256 34.354 14.182719
2009-07-09 13:29:05 51°15.547 2°35.614 18.7259 4.595812 34.323212 14.356839
2009-07-09 13:30:05 51°15.584 2°35.348 18.7566 4.596123 34.295138 14.252367
2009-07-09 13:31:05 51°15.624 2°35.079 18.7856 4.596538 34.2758 14.287191
2009-07-09 13:32:05 51°15.664 2°34.814 18.7451 4.597057 34.261911 14.496136
2009-07-09 13:33:05 51°15.702 2°34.549 18.5388 4.595189 34.312773 14.426488
2009-07-09 13:34:05 51°15.737 2°34.281 18.3746 4.585846 34.384521 14.147895
2009-07-09 13:35:05 51°15.755 2°34.094 18.2241 4.576087 34.432359 13.799655
2009-07-09 13:36:05 51°15.72 2°34.043 18.2063 4.566744 34.454265 13.695182
2009-07-09 13:37:05 51°15.688 2°33.975 18.128 4.563214 34.463645 13.625534
2009-07-09 13:38:05 51°15.664 2°33.884 18.1007 4.558335 34.472292 13.555886
2009-07-09 13:39:05 51°15.638 2°33.804 18.0729 4.55657 34.476013 13.59071
2009-07-09 13:40:05 51°15.611 2°33.746 18.0403 4.554182 34.485814 13.521062
2009-07-09 13:41:05 51°15.584 2°33.687 18.0315 4.552002 34.489374 13.451414
2009-07-09 13:42:05 51°15.555 2°33.626 18.0217 4.551275 34.491901 13.41659
2009-07-09 13:43:05 51°15.522 2°33.569 18.0062 4.550341 34.495343 13.381766
2009-07-09 13:44:05 51°15.49 2°33.513 17.9902 4.548888 34.499067 13.312118
2009-07-09 13:45:05 51°15.455 2°33.455 17.985 4.547746 34.500752 13.24247
2009-07-09 13:46:05 51°15.417 2°33.383 17.9714 4.546811 34.502193 13.24247
2009-07-09 13:47:05 51°15.377 2°33.306 17.9597 4.545981 34.502507 13.207646
2009-07-09 13:48:05 51°15.334 2°33.243 17.9489 4.545254 34.503704 13.207646
2009-07-09 13:49:05 51°15.285 2°33.195 17.9405 4.544631 34.505114 13.172822
2009-07-09 13:50:05 51°15.239 2°33.148 17.9383 4.544112 34.506738 13.172822
2009-07-09 13:51:05 51°15.195 2°33.1 17.9336 4.543593 34.50702 13.207646
2009-07-09 13:52:05 51°15.152 2°33.051 17.9287 4.543385 34.509281 13.172822
2009-07-09 13:53:05 51°15.111 2°32.997 17.9173 4.542762 34.510694 13.172822
2009-07-09 13:54:05 51°15.08 2°32.935 17.9126 4.54214 34.511437 13.207646
2009-07-09 13:55:05 51°15.062 2°32.865 17.9139 4.541413 34.51264 13.172822
2009-07-09 13:56:05 51°15.046 2°32.798 17.9051 4.541517 34.51218 13.207646
2009-07-09 13:57:05 51°15.055 2°32.728 17.9041 4.54079 34.513384 13.137998
2009-07-09 13:58:05 51°15.081 2°32.66 17.9028 4.540582 34.512288 13.24247
2009-07-09 13:59:05 51°15.124 2°32.604 17.8846 4.540271 34.512996 13.207646
2009-07-09 14:00:05 51°15.093 2°32.531 17.8947 4.539544 34.513529 13.24247
2009-07-09 14:01:05 51°15.014 2°32.423 17.8807 4.539648 34.514413 13.24247
2009-07-09 14:02:05 51°14.915 2°32.319 17.8701 4.538818 34.512045 13.277294
2009-07-09 14:03:05 51°14.815 2°32.217 18.0063 4.537779 34.498495 13.277294
2009-07-09 14:04:05 51°14.713 2°32.108 17.8887 4.544007 34.461622 13.207646
2009-07-09 14:05:05 51°14.605 2°31.985 17.8776 4.53944 34.501891 13.207646
2009-07-09 14:06:05 51°14.494 2°31.865 17.8539 4.537571 34.499415 13.103174
2009-07-09 14:07:05 51°14.385 2°31.742 17.8331 4.537364 34.515131 13.103174
2009-07-09 14:08:05 51°14.283 2°31.65 17.8115 4.535599 34.518932 13.103174
2009-07-09 14:09:05 51°14.207 2°31.632 17.8077 4.53425 34.519546 13.103174
2009-07-09 14:10:05 51°14.153 2°31.628 17.8022 4.533419 34.519872 13.103174
2009-07-09 14:11:05 51°14.107 2°31.608 17.7998 4.533108 34.519237 13.103174
2009-07-09 14:12:05 51°14.066 2°31.566 17.7977 4.5329 34.520835 13.103174
2009-07-09 14:13:05 51°14.021 2°31.515 17.7963 4.532693 34.521085 13.103174
2009-07-09 14:14:05 51°13.968 2°31.458 17.7956 4.532693 34.520411 13.06835
2009-07-09 14:15:05 51°13.917 2°31.395 17.7878 4.5329 34.522183 13.103174
2009-07-09 14:16:05 51°13.865 2°31.33 17.7872 4.53207 34.523185 13.103174
2009-07-09 14:17:05 51°13.814 2°31.264 17.7893 4.531966 34.522299 13.137998
2009-07-09 14:18:05 51°13.762 2°31.197 17.7834 4.53207 34.523185 13.137998
2009-07-09 14:19:05 51°13.711 2°31.134 17.7814 4.531758 34.523224 13.137998
2009-07-09 14:20:05 51°13.661 2°31.072 17.7761 4.531447 34.523937 13.137998
2009-07-09 14:21:05 51°13.612 2°31.009 17.7738 4.531135 34.524651 13.137998
2009-07-09 14:22:05 51°13.563 2°30.946 17.7753 4.531135 34.524651 13.172822
2009-07-09 14:23:05 51°13.513 2°30.884 17.7694 4.531032 34.525788 13.172822
2009-07-09 14:24:05 51°13.462 2°30.82 17.7661 4.530616 34.526291 13.172822
2009-07-09 14:25:05 51°13.413 2°30.756 17.7644 4.530201 34.526119 13.207646
2009-07-09 14:26:06 51°13.362 2°30.692 17.7625 4.529993 34.525695 13.207646
2009-07-09 14:27:05 51°13.314 2°30.629 17.7602 4.529993 34.527045 13.172822
2009-07-09 14:28:06 51°13.273 2°30.561 17.7566 4.529474 34.525986 13.24247
2009-07-09 14:29:05 51°13.245 2°30.492 17.752 4.529267 34.526238 13.277294
2009-07-09 14:30:05 51°13.236 2°30.417 17.7496 4.528852 34.526066 13.451414
2009-07-09 14:31:05 51°13.233 2°30.365 17.7438 4.52854 34.526106 13.486238
2009-07-09 14:32:05 51°13.22 2°30.336 17.7446 4.528021 34.525723 13.486238
2009-07-09 14:33:05 51°13.158 2°30.253 17.7438 4.528125 34.525259 13.312118
2009-07-09 14:34:05 51°13.027 2°30.141 17.7478 4.526879 34.513943 13.451414
2009-07-09 14:35:06 51°12.874 2°30.015 17.7628 4.528644 34.523618 13.451414
2009-07-09 14:36:05 51°12.713 2°29.927 17.7747 4.529786 34.521898 13.277294
2009-07-09 14:37:06 51°12.553 2°29.824 17.7884 4.530824 34.521318 13.24247
2009-07-09 14:38:05 51°12.41 2°29.681 17.792 4.532277 34.523609 13.207646
2009-07-09 14:39:05 51°12.269 2°29.529 17.7884 4.532589 34.524918 13.172822
2009-07-09 14:40:05 51°12.128 2°29.377 17.7729 4.53207 34.523859 13.172822
2009-07-09 14:41:05 51°11.989 2°29.225 17.7392 4.530928 34.529625 13.24247
2009-07-09 14:42:05 51°11.851 2°29.082 17.712 4.528125 34.532687 13.312118
2009-07-09 14:43:05 51°11.712 2°28.944 17.701 4.52553 34.531452 13.381766
2009-07-09 14:44:06 51°11.597 2°28.767 17.6996 4.524803 34.531999 13.521062
2009-07-09 14:45:05 51°11.525 2°28.549 17.7015 4.524491 34.531364 13.625534
2009-07-09 14:46:06 51°11.474 2°28.307 17.7011 4.524491 34.531364 13.660358
2009-07-09 14:47:05 51°11.451 2°28.062 17.7018 4.525011 34.533098 13.730007
2009-07-09 14:48:05 51°11.475 2°27.816 17.6985 4.525218 34.535549 13.59071
2009-07-09 14:49:05 51°11.571 2°27.599 17.7186 4.525114 34.533985 13.834479
2009-07-09 14:50:05 51°11.688 2°27.399 17.7229 4.52553 34.536184 14.078247
2009-07-09 14:51:05 51°11.834 2°27.236 17.7084 4.525011 34.539184 14.322015
2009-07-09 14:52:05 51°11.997 2°27.109 17.6963 4.524492 34.541509 14.461312
2009-07-09 14:53:06 51°12.174 2°27.001 17.6806 4.523869 34.54024 14.496136
2009-07-09 14:54:05 51°12.357 2°26.976 17.6826 4.522934 34.542398 14.461312
2009-07-09 14:55:06 51°12.542 2°27.131 17.6718 4.522312 34.543838 14.426488
2009-07-09 14:56:05 51°12.708 2°27.334 17.6484 4.520962 34.545831 14.426488
2009-07-09 14:57:05 51°12.873 2°27.548 17.6388 4.519405 34.54605 14.391664
2009-07-09 14:58:05 51°13.037 2°27.762 17.6493 4.518678 34.545249 14.391664
2009-07-09 14:59:05 51°13.201 2°27.977 17.6523 4.519093 34.543383 14.391664
2009-07-09 15:00:06 51°13.369 2°28.196 17.6621 4.519405 34.542662 14.322015
2009-07-09 15:01:05 51°13.531 2°28.407 17.6605 4.519612 34.541052 14.287191
2009-07-09 15:02:06 51°13.699 2°28.624 17.6631 4.51982 34.54012 14.252367
2009-07-09 15:03:05 51°13.862 2°28.833 17.6687 4.51982 34.538088 14.322015
2009-07-09 15:04:05 51°14.032 2°29.037 17.6787 4.520339 34.537113 14.322015
2009-07-09 15:05:05 51°14.2 2°29.234 17.6825 4.520962 34.534997 14.322015
2009-07-09 15:06:05 51°14.369 2°29.432 17.6844 4.521169 34.532712 14.322015
2009-07-09 15:07:06 51°14.544 2°29.633 17.6831 4.520858 34.531401 14.322015
2009-07-09 15:08:05 51°14.709 2°29.831 17.6678 4.520339 34.531697 14.356839
2009-07-09 15:09:06 51°14.874 2°30.047 17.6621 4.519405 34.532501 14.356839
2009-07-09 15:10:06 51°15.039 2°30.263 17.6591 4.518886 34.532121 14.391664
2009-07-09 15:11:06 51°15.203 2°30.478 17.6646 4.518574 34.534196 14.391664
2009-07-09 15:12:05 51°15.365 2°30.688 17.6558 4.518678 34.53373 14.391664
2009-07-09 15:13:05 51°15.527 2°30.901 17.6586 4.518782 34.534619 14.356839
2009-07-09 15:14:06 51°15.694 2°31.118 17.6654 4.519197 34.53411 14.426488
2009-07-09 15:15:05 51°15.853 2°31.325 17.6694 4.519509 34.534067 14.426488
2009-07-09 15:16:06 51°16.017 2°31.539 17.6787 4.520131 34.533305 14.496136
2009-07-09 15:17:05 51°16.176 2°31.745 17.6873 4.520962 34.532289 14.565784
2009-07-09 15:18:06 51°16.339 2°31.957 17.6954 4.521481 34.531993 14.600608
2009-07-09 15:19:05 51°16.494 2°32.163 17.7003 4.522208 34.530767 14.635432
2009-07-09 15:20:05 51°16.653 2°32.372 17.7092 4.522623 34.530261 14.670256
2009-07-09 15:21:05 51°16.812 2°32.581 17.723 4.523557 34.528784 14.70508
2009-07-09 15:22:05 51°16.973 2°32.791 17.7388 4.524388 34.525745 14.70508
2009-07-09 15:23:06 51°17.137 2°33.006 17.7565 4.525841 34.523303 14.739904
2009-07-09 15:24:05 51°17.295 2°33.212 17.7805 4.527398 34.519727 14.774728
2009-07-09 15:25:06 51°17.47 2°33.402 17.8051 4.528955 34.514807 14.809552
2009-07-09 15:26:06 51°17.645 2°33.576 17.8259 4.531031 34.511629 14.809552
2009-07-09 15:27:05 51°17.818 2°33.742 17.8529 4.5329 34.508035 14.809552
2009-07-09 15:28:05 51°18.004 2°33.87 17.8743 4.534665 34.504908 14.774728
2009-07-09 15:29:05 51°18.197 2°33.988 17.8845 4.536326 34.502247 14.70508
2009-07-09 15:30:05 51°18.389 2°34.106 17.8921 4.53726 34.501467 14.739904
2009-07-09 15:31:05 51°18.577 2°34.223 17.9011 4.537364 34.497646 14.774728
2009-07-09 15:32:06 51°18.769 2°34.341 17.9245 4.53809 34.49107 14.809552
2009-07-09 15:33:06 51°18.958 2°34.461 17.956 4.539336 34.481535 14.774728
2009-07-09 15:34:05 51°19.142 2°34.574 17.9808 4.541308 34.471492 14.8792
2009-07-09 15:35:06 51°19.335 2°34.694 18.0094 4.542658 34.462201 14.8792
2009-07-09 15:36:05 51°19.519 2°34.811 18.0349 4.544007 34.452255 14.914024
2009-07-09 15:37:05 51°19.707 2°34.926 18.0603 4.545564 34.443419 14.948848
2009-07-09 15:38:05 51°19.895 2°35.044 18.0876 4.546602 34.432196 14.948848
2009-07-09 15:39:06 51°20.092 2°35.119 18.1176 4.548159 34.422723 15.018497
2009-07-09 15:40:05 51°20.208 2°35.115 18.1489 4.550028 34.411243 14.983672
2009-07-09 15:41:06 51°20.219 2°35.042 18.169 4.551481 34.403587 14.983672
2009-07-09 15:42:05 51°20.225 2°34.973 18.1882 4.552935 34.399267 15.088145
2009-07-09 15:43:06 51°20.268 2°34.917 18.1807 4.55418 34.395854 15.122969
2009-07-09 15:44:06 51°20.326 2°34.879 18.1851 4.553973 34.39609 15.122969
2009-07-09 15:45:05 51°20.397 2°34.869 18.1721 4.553973 34.39609 15.227441
2009-07-09 15:46:05 51°20.471 2°34.896 18.1592 4.552727 34.39618 15.122969
2009-07-09 15:47:05 51°20.544 2°34.94 18.1593 4.552104 34.397555 15.192617
2009-07-09 15:48:06 51°20.608 2°35.009 18.1462 4.551793 34.396913 15.122969
2009-07-09 15:49:05 51°20.651 2°35.107 18.1443 4.550754 34.396102 15.088145
2009-07-09 15:50:06 51°20.666 2°35.222 18.1479 4.550339 34.394581 15.192617
2009-07-09 15:51:06 51°20.676 2°35.336 18.1533 4.550339 34.391921 15.227441
2009-07-09 15:52:06 51°20.681 2°35.446 18.1519 4.550235 34.390377 15.192617
2009-07-09 15:53:05 51°20.676 2°35.548 18.1525 4.550028 34.386624 15.157793
2009-07-09 15:54:05 51°20.665 2°35.648 18.1597 4.549924 34.381756 15.192617
2009-07-09 15:55:06 51°20.649 2°35.744 18.1613 4.550131 34.380855 15.088145
2009-07-09 15:56:05 51°20.626 2°35.827 18.1743 4.550339 34.37929 15.122969
2009-07-09 15:57:06 51°20.601 2°35.916 18.1874 4.551481 34.375669 15.122969
2009-07-09 15:58:06 51°20.575 2°36.003 18.1964 4.552104 34.372308 15.122969
2009-07-09 15:59:06 51°20.55 2°36.092 18.216 4.553038 34.369592 15.122969
2009-07-09 16:00:06 51°20.521 2°36.183 18.2241 4.55418 34.367972 15.157793
2009-07-09 16:01:06 51°20.482 2°36.252 18.2317 4.554699 34.365066 15.192617
2009-07-09 16:02:05 51°20.437 2°36.296 18.2381 4.555114 34.362609 15.227441
2009-07-09 16:03:05 51°20.389 2°36.329 18.2441 4.555529 34.359491 15.262265
2009-07-09 16:04:06 51°20.341 2°36.338 18.2443 4.555633 34.359044 15.262265
2009-07-09 16:05:06 51°20.303 2°36.313 18.2399 4.555633 34.358381 15.262265
2009-07-09 16:06:06 51°20.294 2°36.258 18.2365 4.555529 34.358829 15.227441
2009-07-09 16:07:06 51°20.317 2°36.222 18.2349 4.555322 34.361713 15.331913
2009-07-09 16:08:06 51°20.34 2°36.209 18.2357 4.555218 34.361498 15.401561
2009-07-09 16:09:06 51°20.375 2°36.212 18.2327 4.555218 34.361498 15.471209
2009-07-09 16:10:06 51°20.417 2°36.291 18.2306 4.55553 34.365456 15.297089
2009-07-09 16:11:05 51°20.353 2°36.46 18.2596 4.555737 34.36456 15.471209
2009-07-09 16:12:06 51°20.253 2°36.716 18.3461 4.558748 34.355552 15.540857
2009-07-09 16:13:06 51°20.138 2°36.955 18.2772 4.566223 34.371009 15.680154
2009-07-09 16:14:06 51°20.02 2°37.195 18.2251 4.562797 34.385107 15.645329
2009-07-09 16:15:06 51°19.908 2°37.443 18.1964 4.557814 34.395378 15.575681
2009-07-09 16:16:06 51°19.798 2°37.696 18.179 4.557399 34.403153 15.540857
2009-07-09 16:17:06 51°19.688 2°37.944 18.1462 4.556673 34.421595 15.471209
2009-07-09 16:18:05 51°19.576 2°38.184 18.1749 4.556569 34.429364 15.401561
2009-07-09 16:19:05 51°19.464 2°38.431 18.1686 4.557399 34.42442 15.506033
2009-07-09 16:20:05 51°19.353 2°38.674 18.1983 4.556153 34.413876 15.645329
2009-07-09 16:21:06 51°19.237 2°38.922 18.2389 4.556672 34.395678 15.784626
2009-07-09 16:22:06 51°19.125 2°39.171 18.2409 4.558022 34.385854 15.923922
2009-07-09 16:23:06 51°19.016 2°39.419 18.269 4.55906 34.387997 15.889098
2009-07-09 16:24:06 51°18.908 2°39.667 18.1827 4.559683 34.411844 15.680154
2009-07-09 16:25:06 51°18.8 2°39.913 18.1666 4.558334 34.44231 15.471209
2009-07-09 16:26:06 51°18.691 2°40.161 18.1758 4.559684 34.453737 15.471209
2009-07-09 16:27:06 51°18.584 2°40.41 18.1882 4.562072 34.463965 15.401561
2009-07-09 16:28:06 51°18.474 2°40.657 18.2148 4.563214 34.459652 15.401561
2009-07-09 16:29:06 51°18.361 2°40.902 18.2404 4.563629 34.444543 15.540857
2009-07-09 16:30:06 51°18.248 2°41.142 18.3097 4.564044 34.41817 15.749802
2009-07-09 16:31:06 51°18.136 2°41.384 18.3734 4.564977 34.379017 16.063218
2009-07-09 16:32:06 51°18.019 2°41.626 18.6433 4.569752 34.28608 16.898995
2009-07-09 16:33:06 51°17.901 2°41.866 18.5847 4.583456 34.277257 16.864171
2009-07-09 16:34:06 51°17.783 2°42.107 18.571 4.585949 34.330228 16.446283
2009-07-09 16:35:06 51°17.673 2°42.355 18.5659 4.596437 34.419529 15.784626
2009-07-09 16:36:06 51°17.559 2°42.594 18.5495 4.600695 34.466448 15.401561
2009-07-09 16:37:06 51°17.446 2°42.833 18.5999 4.603291 34.482315 15.366737
2009-07-09 16:38:06 51°17.337 2°43.065 18.6295 4.606925 34.483189 15.366737
2009-07-09 16:39:06 51°17.226 2°43.293 18.7178 4.604017 34.417429 16.098042
2009-07-09 16:40:06 51°17.108 2°43.521 18.7626 4.601108 34.326372 16.655227
2009-07-09 16:41:06 51°16.995 2°43.753 18.7471 4.602042 34.319832 16.063218
2009-07-09 16:42:06 51°16.882 2°43.984 18.7531 4.600277 34.301823 16.341811
2009-07-09 16:43:05 51°16.769 2°44.214 18.765 4.602146 34.323961 16.202514
2009-07-09 16:44:06 51°16.654 2°44.446 18.8902 4.609311 34.342742 16.481107
2009-07-09 16:45:06 51°16.557 2°44.694 18.9321 4.617825 34.335683 16.481107
2009-07-09 16:46:06 51°16.464 2°44.944 18.9312 4.622601 34.348193 16.550755
2009-07-09 16:47:06 51°16.368 2°45.196 19.0075 4.624782 34.351417 16.620403
2009-07-09 16:48:06 51°16.27 2°45.446 19.0997 4.634439 34.356533 17.421356
2009-07-09 16:49:06 51°16.171 2°45.692 19.1429 4.638072 34.325933 17.908893
2009-07-09 16:50:06 51°16.095 2°45.959 19.1571 4.637033 34.286371 18.117837
2009-07-09 16:51:06 51°16.03 2°46.244 19.1477 4.636306 34.272621 18.326782
2009-07-09 16:52:05 51°15.965 2°46.524 19.1239 4.63371 34.260765 18.187485
2009-07-09 16:53:06 51°15.893 2°46.813 19.144 4.62831 34.237249 18.291958
2009-07-09 16:54:06 51°15.823 2°47.095 19.1497 4.628829 34.229327 18.222309
2009-07-09 16:55:06 51°15.752 2°47.373 19.1382 4.626233 34.20717 18.187485
2009-07-09 16:56:06 51°15.682 2°47.651 19.3723 4.627479 34.216211 27.241739
2009-07-09 16:57:06 51°15.613 2°47.929 19.457 4.627583 34.217071 25.674657
2009-07-09 16:58:06 51°15.545 2°48.207 19.5511 4.627583 34.217071 25.674657
2009-07-09 16:59:06 51°15.482 2°48.488 19.6493 4.627687 34.217289 25.779129
2009-07-09 17:00:06 51°15.42 2°48.767 19.7491 4.627687 34.217289 25.744305
2009-07-09 17:01:06 51°15.36 2°49.049 19.8372 4.627687 34.217289 25.883601
2009-07-09 17:02:06 51°15.3 2°49.332 19.9306 4.627791 34.218149 25.953249
2009-07-09 17:03:06 51°15.256 2°49.622 20.024 4.627791 34.217506 25.988073
2009-07-09 17:04:06 51°15.216 2°49.919 20.1069 4.627895 34.217724 26.022897
2009-07-09 17:05:06 51°15.178 2°50.212 20.2076 4.627998 34.218584 26.12737
2009-07-09 17:06:06 51°15.137 2°50.505 20.2791 4.628102 34.219445 25.988073
2009-07-09 17:07:06 51°15.099 2°50.799 20.3624 4.628206 34.219019 26.30149
2009-07-09 17:08:06 51°15.054 2°51.092 20.4459 4.628414 34.220097 26.545258
2009-07-09 17:09:06 51°15.01 2°51.386 20.5187 4.628621 34.221175 26.30149
2009-07-09 17:10:06 51°14.969 2°51.675 20.618 4.628829 34.222253 26.371138
2009-07-09 17:11:06 51°14.928 2°51.964 20.7057 4.629037 34.222688 26.266666
2009-07-09 17:12:06 51°14.879 2°52.249 20.741 4.629245 34.223765 25.883601
2009-07-09 17:13:06 51°14.832 2°52.532 20.8454 4.629452 34.224843 26.022897
2009-07-09 17:14:06 51°14.781 2°52.814 20.928 4.629764 34.226138 26.022897
2009-07-09 17:15:06 51°14.729 2°53.096 20.9665 4.630075 34.228076 25.918425
2009-07-09 17:16:06 51°14.684 2°53.358 21.056 4.630283 34.228511 25.953249
2009-07-09 17:17:06 51°14.647 2°53.599 21.1263 4.630594 34.229806 26.022897
2009-07-09 17:18:06 51°14.611 2°53.835 21.1664 4.630906 34.231101 26.022897
2009-07-09 17:19:06 51°14.574 2°54.063 21.2407 4.631218 34.233682 26.022897
2009-07-09 17:20:06 51°14.539 2°54.287 21.3118 4.631425 34.234116 26.022897
2009-07-09 17:21:06 51°14.495 2°54.502 21.3449 4.631737 34.236054 26.022897
2009-07-09 17:22:06 51°14.446 2°54.728 21.4345 4.632048 34.236706 26.057722
2009-07-09 17:23:06 51°14.381 2°54.963 21.4678 4.632256 34.237783 26.092546
2009-07-09 17:24:06 51°14.291 2°55.194 21.5542 4.632568 34.239721 26.092546
2009-07-09 17:25:06 51°14.174 2°55.372 21.5778 4.632879 34.241016 26.12737
2009-07-09 17:26:06 51°14.074 2°55.453 21.6386 4.633087 34.24145 26.092546
2009-07-09 17:27:06 51°13.965 2°55.53 21.6772 4.633398 34.242744 26.12737
2009-07-09 17:28:06 51°13.852 2°55.612 21.7201 4.63371 34.244682 26.162194
2009-07-09 17:29:06 51°13.763 2°55.706 21.7784 4.634021 34.245976 26.197018
2009-07-09 17:30:10 51°13.709 2°55.807 21.8279 4.634333 34.247913 26.197018
2009-07-09 17:31:10 51°13.676 2°55.906 21.862 4.634644 34.249208 26.231842
2009-07-09 17:32:09 51°13.662 2°55.954 21.9324 4.634956 34.250502 26.231842
2009-07-09 17:33:10 51°13.661 2°55.961 21.9811 4.635164 34.250936 26.231842
2009-07-09 17:34:10 51°13.662 2°55.962 22.0074 4.635475 34.252873 26.266666